Time;durP1;ratioP1;P1;durP2;ratioP2;P2;SDS_P1;SDS_P2;PMS_P1;PMS_P2;Temp;Humidity;BMP_temperature;BMP_pressure;BME280_temperature;BME280_humidity;BME280_pressure;Samples;Min_cycle;Max_cycle;Signal;HPM_P1;HPM_P2
2022/04/26 03:36:47;;;;;;;4.20;4.10;;;;;;;;;;5047380;28;20453;-76
2022/04/26 03:39:13;;;;;;;4.00;3.90;;;;;;;;;;5050302;28;20422;-77
2022/04/26 03:41:38;;;;;;;4.27;4.17;;;;;;;;;;5046618;28;20446;-74
2022/04/26 03:44:05;;;;;;;3.90;3.80;;;;;;;;;;5047654;28;20862;-75
2022/04/26 03:46:31;;;;;;;4.73;4.43;;;;;;;;;;5051325;28;20438;-75
2022/04/26 03:48:57;;;;;;;4.67;4.47;;;;;;;;;;5051276;28;20432;-75
2022/04/26 03:51:23;;;;;;;5.07;4.77;;;;;;;;;;5048837;28;20485;-75
2022/04/26 03:53:49;;;;;;;5.37;5.17;;;;;;;;;;5047716;28;20470;-75
2022/04/26 03:56:15;;;;;;;4.93;4.70;;;;;;;;;;5050068;28;20449;-74
2022/04/26 03:58:41;;;;;;;5.77;4.93;;;;;;;;;;5049659;28;20474;-76
2022/04/26 04:01:07;;;;;;;5.27;4.97;;;;;;;;;;5047706;28;20835;-75
2022/04/26 04:03:36;;;;;;;5.13;4.83;;;;;;;;;;5048648;28;20426;-75
2022/04/26 04:06:02;;;;;;;4.40;4.20;;;;;;;;;;5047270;28;20443;-74
2022/04/26 04:08:28;;;;;;;5.70;5.40;;;;;;;;;;5049788;28;20423;-73
2022/04/26 04:10:54;;;;;;;5.43;5.23;;;;;;;;;;5049236;28;20446;-74
2022/04/26 04:13:20;;;;;;;6.07;5.67;;;;;;;;;;5046977;28;20794;-73
2022/04/26 04:15:49;;;;;;;6.43;6.03;;;;;;;;;;5046568;28;20438;-73
2022/04/26 04:21:00;;;;;;;7.20;6.70;;;;;;;;;;5049737;28;20492;-74
2022/04/26 04:23:26;;;;;;;5.57;5.37;;;;;;;;;;5049516;28;20453;-74
2022/04/26 04:25:52;;;;;;;5.13;4.93;;;;;;;;;;5043535;28;20434;-74
2022/04/26 04:28:18;;;;;;;8.63;5.50;;;;;;;;;;5047048;28;20536;-75
2022/04/26 04:30:44;;;;;;;5.33;4.93;;;;;;;;;;5048352;28;20964;-74
2022/04/26 04:33:10;;;;;;;5.47;5.00;;;;;;;;;;5047694;28;20415;-73
2022/04/26 04:35:36;;;;;;;5.93;5.47;;;;;;;;;;5047305;28;20438;-73
2022/04/26 04:38:02;;;;;;;5.33;5.03;;;;;;;;;;5047335;28;20484;-74
2022/04/26 04:40:28;;;;;;;5.30;5.10;;;;;;;;;;5049101;28;20490;-74
2022/04/26 04:42:55;;;;;;;6.77;6.27;;;;;;;;;;5049530;28;20442;-77
2022/04/26 04:45:21;;;;;;;7.17;6.47;;;;;;;;;;5047428;28;20438;-77
2022/04/26 04:47:47;;;;;;;6.63;6.13;;;;;;;;;;5043854;28;20441;-77
2022/04/26 04:50:13;;;;;;;5.80;5.50;;;;;;;;;;5048252;28;20544;-78
2022/04/26 04:52:40;;;;;;;6.13;5.83;;;;;;;;;;5048490;28;20443;-78
2022/04/26 04:55:06;;;;;;;7.30;6.67;;;;;;;;;;5046063;28;20997;-75
2022/04/26 04:57:32;;;;;;;8.90;5.80;;;;;;;;;;5043375;28;20450;-77
2022/04/26 05:00:00;;;;;;;6.50;6.10;;;;;;;;;;5045600;28;20486;-77
2022/04/26 05:02:26;;;;;;;6.10;5.70;;;;;;;;;;5038501;28;20528;-75
2022/04/26 05:04:52;;;;;;;5.93;5.63;;;;;;;;;;5046888;28;20534;-77
2022/04/26 05:07:18;;;;;;;6.93;6.53;;;;;;;;;;5048285;28;20435;-77
2022/04/26 05:09:44;;;;;;;6.83;6.43;;;;;;;;;;5045764;28;20434;-78
2022/04/26 05:12:10;;;;;;;6.37;5.93;;;;;;;;;;5039413;28;20454;-76
2022/04/26 05:14:36;;;;;;;9.93;6.87;;;;;;;;;;5039538;28;20482;-74
2022/04/26 05:17:02;;;;;;;6.77;6.10;;;;;;;;;;5037388;28;20493;-77
2022/04/26 05:19:28;;;;;;;5.80;5.50;;;;;;;;;;5045265;28;21090;-78
2022/04/26 05:21:54;;;;;;;11.23;5.70;;;;;;;;;;5047792;28;20442;-77
2022/04/26 05:27:05;;;;;;;7.10;6.40;;;;;;;;;;5044332;28;20441;-78
2022/04/26 05:29:31;;;;;;;4.93;4.60;;;;;;;;;;5047567;28;20434;-78
2022/04/26 05:31:57;;;;;;;5.00;4.60;;;;;;;;;;5042356;28;20799;-77
2022/04/26 05:34:23;;;;;;;4.00;3.90;;;;;;;;;;5046577;28;20465;-77
2022/04/26 05:36:49;;;;;;;3.97;3.87;;;;;;;;;;5040346;28;20473;-78
2022/04/26 05:39:15;;;;;;;4.32;3.92;;;;;;;;;;5047876;28;20454;-77
2022/04/26 05:41:41;;;;;;;4.83;4.53;;;;;;;;;;5045985;28;20192;-77
2022/04/26 05:44:07;;;;;;;4.00;3.73;;;;;;;;;;5047986;28;20453;-77
2022/04/26 05:46:33;;;;;;;3.87;3.67;;;;;;;;;;5036554;28;20481;-78
2022/04/26 05:48:59;;;;;;;4.03;3.83;;;;;;;;;;5044703;28;20449;-77
2022/04/26 05:51:25;;;;;;;4.03;3.93;;;;;;;;;;5044890;28;21112;-76
2022/04/26 05:53:51;;;;;;;4.73;4.53;;;;;;;;;;5045336;28;20441;-75
2022/04/26 05:56:17;;;;;;;5.27;4.87;;;;;;;;;;5046509;28;20509;-77
2022/04/26 05:58:43;;;;;;;5.30;4.97;;;;;;;;;;5046237;28;20974;-78
2022/04/26 06:01:09;;;;;;;4.50;4.30;;;;;;;;;;5044643;28;20956;-77
2022/04/26 06:03:35;;;;;;;4.20;4.10;;;;;;;;;;5043863;28;20433;-76
2022/04/26 06:06:01;;;;;;;4.47;4.27;;;;;;;;;;5042632;28;20434;-77
2022/04/26 06:08:27;;;;;;;3.97;3.87;;;;;;;;;;5040767;28;20443;-78
2022/04/26 06:10:53;;;;;;;5.30;4.93;;;;;;;;;;5044500;28;20434;-77
2022/04/26 06:13:19;;;;;;;5.00;4.80;;;;;;;;;;5047687;28;21025;-78
2022/04/26 06:15:45;;;;;;;4.27;4.10;;;;;;;;;;5042465;28;20456;-78
2022/04/26 06:18:11;;;;;;;4.90;4.60;;;;;;;;;;5043352;28;20431;-75
2022/04/26 06:20:37;;;;;;;5.20;4.83;;;;;;;;;;5045385;28;20491;-77
2022/04/26 06:23:03;;;;;;;5.53;5.30;;;;;;;;;;5048876;28;20406;-78
2022/04/26 06:25:29;;;;;;;6.00;5.57;;;;;;;;;;5047494;28;20434;-78
2022/04/26 06:27:55;;;;;;;4.97;4.57;;;;;;;;;;5048628;28;20431;-76
2022/04/26 06:30:21;;;;;;;4.63;4.43;;;;;;;;;;5048023;28;20438;-77
2022/04/26 06:32:47;;;;;;;5.40;5.13;;;;;;;;;;5045697;28;20441;-77
2022/04/26 06:35:13;;;;;;;5.40;5.00;;;;;;;;;;5044717;28;21052;-78
2022/04/26 06:37:39;;;;;;;4.80;4.60;;;;;;;;;;5048166;28;20806;-77
2022/04/26 06:40:05;;;;;;;5.87;5.43;;;;;;;;;;5038614;28;20477;-77
2022/04/26 06:42:31;;;;;;;8.03;4.90;;;;;;;;;;5041410;28;20447;-76
2022/04/26 06:44:57;;;;;;;5.50;5.10;;;;;;;;;;5045561;28;21462;-75
2022/04/26 06:47:23;;;;;;;7.37;4.17;;;;;;;;;;5046441;28;20557;-75
2022/04/26 06:49:49;;;;;;;5.47;5.27;;;;;;;;;;5047536;28;20988;-78
2022/04/26 06:52:15;;;;;;;5.40;5.20;;;;;;;;;;5044557;28;20446;-78
2022/04/26 06:54:41;;;;;;;4.90;4.70;;;;;;;;;;5046653;28;20455;-77
2022/04/26 06:57:08;;;;;;;5.20;5.00;;;;;;;;;;5038773;28;20438;-78
2022/04/26 06:59:34;;;;;;;4.90;4.60;;;;;;;;;;5030974;28;20896;-78
2022/04/26 07:02:00;;;;;;;5.43;5.23;;;;;;;;;;5041478;28;20799;-74
2022/04/26 07:04:26;;;;;;;5.60;5.30;;;;;;;;;;5040745;28;20962;-77
2022/04/26 07:06:52;;;;;;;5.07;4.03;;;;;;;;;;5033645;28;20422;-76
2022/04/26 07:09:19;;;;;;;4.33;4.23;;;;;;;;;;5051918;28;20498;-77
2022/04/26 07:11:46;;;;;;;7.10;5.77;;;;;;;;;;5047813;28;20442;-76
2022/04/26 07:14:13;;;;;;;4.60;4.40;;;;;;;;;;5049280;28;20453;-75
2022/04/26 07:16:39;;;;;;;4.70;4.50;;;;;;;;;;5037419;28;20767;-76
2022/04/26 07:19:05;;;;;;;3.67;3.57;;;;;;;;;;5044388;28;20426;-77
2022/04/26 07:21:31;;;;;;;4.43;4.23;;;;;;;;;;5046355;28;21042;-77
2022/04/26 07:23:57;;;;;;;4.97;4.77;;;;;;;;;;5044090;28;20430;-76
2022/04/26 07:26:23;;;;;;;5.60;5.27;;;;;;;;;;5051024;28;20456;-76
2022/04/26 07:28:49;;;;;;;5.00;4.60;;;;;;;;;;5035798;28;20503;-78
2022/04/26 07:31:15;;;;;;;4.37;4.27;;;;;;;;;;5046486;28;20450;-76
2022/04/26 07:36:26;;;;;;;4.87;4.50;;;;;;;;;;5050055;28;20413;-76
2022/04/26 07:38:52;;;;;;;3.63;3.43;;;;;;;;;;5047702;28;20430;-74
2022/04/26 07:41:18;;;;;;;3.87;3.67;;;;;;;;;;5049661;28;20490;-75
2022/04/26 07:43:44;;;;;;;4.23;4.13;;;;;;;;;;5051432;28;20421;-77
2022/04/26 07:46:13;;;;;;;4.47;4.27;;;;;;;;;;5049528;28;20565;-76
2022/04/26 07:48:41;;;;;;;3.70;3.60;;;;;;;;;;5049823;28;20942;-76
2022/04/26 07:51:08;;;;;;;4.73;4.50;;;;;;;;;;5043991;28;20482;-75
2022/04/26 07:53:34;;;;;;;6.20;5.80;;;;;;;;;;5049523;28;20469;-76
2022/04/26 07:56:00;;;;;;;4.90;4.70;;;;;;;;;;5048641;28;20425;-76
2022/04/26 07:58:27;;;;;;;6.50;5.10;;;;;;;;;;5049590;28;21048;-78
2022/04/26 08:00:53;;;;;;;4.90;4.47;;;;;;;;;;5044133;28;20493;-71
2022/04/26 08:03:20;;;;;;;5.30;4.80;;;;;;;;;;5048966;28;20438;-73
2022/04/26 08:05:46;;;;;;;4.53;4.33;;;;;;;;;;5050967;28;20426;-73
2022/04/26 08:08:12;;;;;;;5.90;5.00;;;;;;;;;;5050651;28;20418;-76
2022/04/26 08:10:38;;;;;;;3.90;3.80;;;;;;;;;;5046969;28;20453;-77
2022/04/26 08:13:04;;;;;;;12.70;4.80;;;;;;;;;;5047762;28;21007;-78
2022/04/26 08:15:30;;;;;;;4.00;3.87;;;;;;;;;;5046453;28;20444;-74
2022/04/26 08:17:56;;;;;;;3.50;3.40;;;;;;;;;;5045885;28;20863;-74
2022/04/26 08:20:24;;;;;;;3.53;3.40;;;;;;;;;;5046946;28;21001;-74
2022/04/26 08:22:50;;;;;;;3.40;3.30;;;;;;;;;;5042869;28;20858;-73
2022/04/26 08:28:04;;;;;;;3.10;3.00;;;;;;;;;;5042716;28;20861;-73
2022/04/26 08:30:30;;;;;;;3.43;3.33;;;;;;;;;;5047270;28;20519;-75
2022/04/26 08:32:57;;;;;;;3.40;3.40;;;;;;;;;;5045953;28;20442;-74
2022/04/26 08:35:25;;;;;;;4.20;4.10;;;;;;;;;;5040350;28;20957;-77
2022/04/26 08:37:52;;;;;;;3.77;3.60;;;;;;;;;;5036406;28;20889;-77
2022/04/26 08:40:18;;;;;;;5.93;3.37;;;;;;;;;;5044800;28;20517;-75
2022/04/26 08:42:46;;;;;;;4.60;3.47;;;;;;;;;;5044796;28;20491;-73
2022/04/26 08:45:13;;;;;;;3.33;3.23;;;;;;;;;;5046739;28;20446;-74
2022/04/26 08:53:09;;;;;;;4.63;4.10;;;;;;;;;;5047130;28;20425;-74
2022/04/26 08:55:55;;;;;;;3.10;3.00;;;;;;;;;;5047793;28;21037;-73
2022/04/26 08:58:22;;;;;;;3.30;3.10;;;;;;;;;;5050027;28;20421;-76
2022/04/26 09:01:03;;;;;;;3.33;2.70;;;;;;;;;;5043920;28;20531;-76
2022/04/26 09:03:33;;;;;;;3.80;3.50;;;;;;;;;;5043438;28;20500;-76
2022/04/26 09:06:04;;;;;;;3.40;3.30;;;;;;;;;;5043845;28;20426;-76
2022/04/26 09:08:30;;;;;;;3.47;3.37;;;;;;;;;;5047519;28;20431;-77
2022/04/26 09:10:56;;;;;;;3.70;3.47;;;;;;;;;;5047145;28;20466;-76
2022/04/26 09:13:23;;;;;;;5.93;3.70;;;;;;;;;;5039906;28;20479;-76
2022/04/26 09:15:50;;;;;;;3.00;2.77;;;;;;;;;;5043032;28;20449;-76
2022/04/26 09:18:20;;;;;;;2.80;2.70;;;;;;;;;;5042367;28;20489;-76
2022/04/26 09:20:48;;;;;;;2.27;2.27;;;;;;;;;;5041326;28;20523;-76
2022/04/26 09:23:34;;;;;;;3.27;2.80;;;;;;;;;;5047451;28;20469;-76
2022/04/26 09:26:12;;;;;;;4.93;3.00;;;;;;;;;;5043418;28;20532;-76
2022/04/26 09:28:42;;;;;;;3.43;3.13;;;;;;;;;;5041729;28;20452;-73
2022/04/26 09:31:25;;;;;;;2.90;2.70;;;;;;;;;;5039891;28;20435;-71
2022/04/26 09:33:57;;;;;;;2.67;2.57;;;;;;;;;;5043594;28;20465;-70
2022/04/26 09:36:24;;;;;;;3.30;3.10;;;;;;;;;;5037852;28;20512;-75
2022/04/26 09:38:50;;;;;;;5.83;4.07;;;;;;;;;;5046455;28;20511;-74
2022/04/26 09:41:16;;;;;;;3.30;3.20;;;;;;;;;;5038902;28;20577;-73
2022/04/26 09:43:42;;;;;;;3.00;3.00;;;;;;;;;;5037909;28;20430;-75
2022/04/26 09:46:08;;;;;;;2.80;2.80;;;;;;;;;;5042221;28;20549;-75
2022/04/26 09:48:38;;;;;;;2.90;2.80;;;;;;;;;;5042005;28;20429;-75
2022/04/26 09:51:05;;;;;;;3.30;3.03;;;;;;;;;;5043899;28;20518;-76
2022/04/26 09:53:32;;;;;;;3.77;3.50;;;;;;;;;;5046841;28;20969;-74
2022/04/26 09:55:59;;;;;;;3.67;3.57;;;;;;;;;;5042869;28;20541;-76
2022/04/26 09:58:30;;;;;;;2.93;2.83;;;;;;;;;;5044940;28;20517;-77
2022/04/26 10:00:57;;;;;;;3.33;3.13;;;;;;;;;;5034585;28;20539;-77
2022/04/26 10:03:30;;;;;;;2.90;2.80;;;;;;;;;;5046187;28;20450;-76
2022/04/26 10:06:00;;;;;;;4.10;3.80;;;;;;;;;;5046005;28;20450;-74
2022/04/26 10:08:28;;;;;;;3.17;3.07;;;;;;;;;;5043458;28;20434;-75
2022/04/26 10:10:56;;;;;;;3.70;3.03;;;;;;;;;;5037258;28;20548;-74
2022/04/26 10:13:31;;;;;;;3.33;2.30;;;;;;;;;;5040013;28;20469;-74
2022/04/26 10:16:02;;;;;;;2.80;2.70;;;;;;;;;;5041756;28;20483;-74
2022/04/26 10:18:38;;;;;;;3.70;3.40;;;;;;;;;;5032350;28;20525;-76
2022/04/26 10:21:04;;;;;;;2.40;2.40;;;;;;;;;;5037143;28;20478;-73
2022/04/26 10:23:50;;;;;;;2.67;2.40;;;;;;;;;;5045292;28;20940;-73
2022/04/26 10:26:23;;;;;;;4.03;2.80;;;;;;;;;;5044915;28;20464;-74
2022/04/26 10:28:50;;;;;;;3.33;2.40;;;;;;;;;;5040155;28;20430;-74
2022/04/26 10:31:17;;;;;;;3.70;3.10;;;;;;;;;;5044397;28;20935;-74
2022/04/26 10:33:44;;;;;;;6.30;3.13;;;;;;;;;;5043549;28;21014;-76
2022/04/26 10:36:29;;;;;;;3.97;3.60;;;;;;;;;;5045558;28;20446;-74
2022/04/26 10:39:12;;;;;;;3.37;3.10;;;;;;;;;;5045182;28;20458;-75
2022/04/26 10:41:38;;;;;;;3.10;2.90;;;;;;;;;;5047135;28;20482;-76
2022/04/26 10:44:13;;;;;;;3.37;3.13;;;;;;;;;;5045289;28;20422;-75
2022/04/26 10:46:39;;;;;;;2.83;2.50;;;;;;;;;;5045307;28;20469;-73
2022/04/26 10:49:23;;;;;;;2.93;2.83;;;;;;;;;;5038601;28;20419;-73
2022/04/26 10:51:55;;;;;;;6.33;2.90;;;;;;;;;;5048811;28;20446;-74
2022/04/26 10:54:39;;;;;;;7.50;2.30;;;;;;;;;;5038933;28;20481;-74
2022/04/26 10:57:05;;;;;;;2.40;2.30;;;;;;;;;;5039320;28;20554;-75
2022/04/26 10:59:32;;;;;;;2.00;2.00;;;;;;;;;;5043619;28;20446;-76
2022/04/26 11:01:58;;;;;;;5.07;2.13;;;;;;;;;;5043556;28;20542;-76
2022/04/26 11:04:24;;;;;;;2.63;2.53;;;;;;;;;;5043374;28;20438;-75
2022/04/26 11:06:50;;;;;;;3.83;2.93;;;;;;;;;;5044475;28;20507;-77
2022/04/26 11:09:16;;;;;;;3.17;2.40;;;;;;;;;;5048406;28;20910;-76
2022/04/26 11:11:49;;;;;;;2.43;2.33;;;;;;;;;;5047729;28;20442;-74
2022/04/26 11:14:17;;;;;;;3.37;3.10;;;;;;;;;;5048397;28;20517;-74
2022/04/26 11:16:59;;;;;;;6.13;2.70;;;;;;;;;;5049427;28;20426;-74
2022/04/26 11:19:32;;;;;;;3.80;2.43;;;;;;;;;;5044603;28;21653;-76
2022/04/26 11:22:04;;;;;;;2.23;2.13;;;;;;;;;;5049150;28;20454;-77
2022/04/26 11:29:59;;;;;;;3.27;1.90;;;;;;;;;;5051312;28;20470;-74
2022/04/26 11:32:34;;;;;;;1.70;1.70;;;;;;;;;;5047953;28;20423;-74
2022/04/26 11:35:00;;;;;;;2.50;2.40;;;;;;;;;;5046988;28;20512;-74
2022/04/26 11:37:26;;;;;;;3.30;3.10;;;;;;;;;;5045458;28;20538;-74
2022/04/26 11:39:52;;;;;;;2.63;2.50;;;;;;;;;;5048396;28;20816;-75
2022/04/26 11:42:19;;;;;;;5.53;5.10;;;;;;;;;;5051894;28;20457;-73
2022/04/26 11:44:57;;;;;;;2.50;2.40;;;;;;;;;;5049713;28;20903;-77
2022/04/26 11:47:39;;;;;;;6.33;2.30;;;;;;;;;;5051735;28;20805;-76
2022/04/26 11:50:12;;;;;;;3.53;3.00;;;;;;;;;;5043264;28;20474;-73
2022/04/26 11:52:38;;;;;;;2.70;2.50;;;;;;;;;;5047482;28;20423;-73
2022/04/26 11:55:05;;;;;;;2.00;2.00;;;;;;;;;;5048147;28;20522;-76
2022/04/26 11:57:31;;;;;;;1.80;1.70;;;;;;;;;;5047211;28;20446;-74
2022/04/26 11:59:58;;;;;;;9.10;2.30;;;;;;;;;;5049113;28;20843;-74
2022/04/26 12:02:24;;;;;;;3.73;2.43;;;;;;;;;;5046775;28;20434;-73
2022/04/26 12:04:50;;;;;;;2.60;2.47;;;;;;;;;;5051500;28;20418;-74
2022/04/26 12:07:16;;;;;;;2.57;2.47;;;;;;;;;;5031268;28;21789;-76
2022/04/26 12:09:42;;;;;;;2.83;2.13;;;;;;;;;;5040010;28;20442;-76
2022/04/26 12:12:10;;;;;;;2.37;2.30;;;;;;;;;;5038845;28;20922;-75
2022/04/26 12:14:38;;;;;;;5.67;3.10;;;;;;;;;;5030956;28;20469;-76
2022/04/26 12:17:04;;;;;;;2.67;2.43;;;;;;;;;;5041210;28;20470;-73
2022/04/26 12:19:34;;;;;;;7.20;2.47;;;;;;;;;;5046422;28;20474;-73
2022/04/26 12:22:00;;;;;;;3.00;2.90;;;;;;;;;;5031476;28;20851;-74
2022/04/26 12:24:28;;;;;;;3.03;2.93;;;;;;;;;;5041630;28;20467;-74
2022/04/26 12:26:58;;;;;;;3.23;3.07;;;;;;;;;;5049601;28;20430;-74
2022/04/26 12:29:29;;;;;;;3.10;3.00;;;;;;;;;;5049707;28;20518;-76
2022/04/26 12:31:55;;;;;;;2.70;2.60;;;;;;;;;;5049229;28;20446;-76
2022/04/26 12:34:23;;;;;;;2.60;2.50;;;;;;;;;;5042916;28;20442;-76
2022/04/26 12:36:59;;;;;;;2.40;2.20;;;;;;;;;;5049840;28;20944;-73
2022/04/26 12:39:40;;;;;;;2.80;2.70;;;;;;;;;;5047374;28;20645;-76
2022/04/26 12:42:07;;;;;;;2.60;2.50;;;;;;;;;;5048464;28;20453;-78
2022/04/26 12:44:33;;;;;;;2.03;2.03;;;;;;;;;;5046727;28;20434;-75
2022/04/26 12:52:45;;;;;;;2.93;2.70;;;;;;;;;;5048144;28;20413;-75
2022/04/26 12:55:11;;;;;;;3.33;3.13;;;;;;;;;;5047765;28;20457;-73
2022/04/26 12:57:47;;;;;;;8.50;7.30;;;;;;;;;;5046358;28;20945;-74
2022/04/26 13:00:13;;;;;;;3.73;3.47;;;;;;;;;;5048353;28;20501;-74
2022/04/26 13:02:39;;;;;;;8.03;3.17;;;;;;;;;;5047105;28;20463;-73
2022/04/26 13:05:05;;;;;;;3.10;2.90;;;;;;;;;;5045049;28;20539;-75
2022/04/26 13:07:31;;;;;;;3.00;2.63;;;;;;;;;;5039261;28;20534;-74
2022/04/26 13:09:57;;;;;;;3.63;3.43;;;;;;;;;;5046393;28;22618;-73
2022/04/26 13:12:24;;;;;;;4.07;3.87;;;;;;;;;;5042659;28;20446;-73
2022/04/26 13:14:50;;;;;;;2.80;2.77;;;;;;;;;;5042169;28;20446;-74
2022/04/26 13:17:20;;;;;;;2.87;2.70;;;;;;;;;;5048702;28;20422;-77
2022/04/26 13:19:47;;;;;;;2.50;2.40;;;;;;;;;;5047663;28;20496;-74
2022/04/26 13:22:15;;;;;;;2.53;2.43;;;;;;;;;;5049473;28;20882;-74
2022/04/26 13:24:41;;;;;;;3.00;2.83;;;;;;;;;;5050122;28;20418;-77
2022/04/26 13:27:07;;;;;;;4.80;3.10;;;;;;;;;;5047999;28;20444;-73
2022/04/26 13:29:33;;;;;;;2.90;2.80;;;;;;;;;;5042439;28;20438;-77
2022/04/26 13:32:00;;;;;;;2.80;2.67;;;;;;;;;;5043902;28;20446;-75
2022/04/26 13:34:26;;;;;;;3.07;2.97;;;;;;;;;;5048844;28;20809;-75
2022/04/26 13:36:52;;;;;;;3.33;3.13;;;;;;;;;;5045930;28;20442;-77
2022/04/26 13:39:18;;;;;;;7.50;2.90;;;;;;;;;;5046113;28;20414;-73
2022/04/26 13:41:44;;;;;;;2.97;2.50;;;;;;;;;;5045887;28;20486;-75
2022/04/26 13:44:10;;;;;;;2.90;2.80;;;;;;;;;;5048906;28;20427;-75
2022/04/26 13:46:36;;;;;;;3.43;3.23;;;;;;;;;;5044140;28;20529;-76
2022/04/26 13:49:03;;;;;;;3.27;3.13;;;;;;;;;;5048473;28;20431;-73
2022/04/26 13:51:29;;;;;;;3.63;3.43;;;;;;;;;;5038000;28;20466;-76
2022/04/26 13:53:56;;;;;;;3.30;3.17;;;;;;;;;;5042473;28;20427;-73
2022/04/26 13:56:22;;;;;;;2.87;2.60;;;;;;;;;;5048360;28;20433;-73
2022/04/26 13:58:48;;;;;;;3.60;3.40;;;;;;;;;;5046080;28;20464;-75
2022/04/26 14:01:14;;;;;;;3.23;2.80;;;;;;;;;;5042632;28;20576;-73
2022/04/26 14:03:40;;;;;;;11.90;2.63;;;;;;;;;;5044338;28;20430;-73
2022/04/26 14:06:10;;;;;;;2.50;2.30;;;;;;;;;;5043767;28;20434;-71
2022/04/26 14:08:36;;;;;;;2.77;2.57;;;;;;;;;;5042768;28;20962;-72
2022/04/26 14:11:02;;;;;;;2.90;2.80;;;;;;;;;;5043402;28;20572;-73
2022/04/26 14:21:46;;;;;;;6.10;2.57;;;;;;;;;;5040570;28;20438;-73
2022/04/26 14:21:47;;;;;;;2.40;2.37;;;;;;;;;;5040266;28;20542;-73
2022/04/26 14:24:13;;;;;;;2.97;2.87;;;;;;;;;;5046550;28;20437;-73
2022/04/26 14:26:41;;;;;;;2.30;2.20;;;;;;;;;;5047036;28;20439;-71
2022/04/26 14:29:07;;;;;;;3.10;3.00;;;;;;;;;;5036082;28;20423;-77
2022/04/26 14:31:33;;;;;;;2.97;2.90;;;;;;;;;;5043604;28;20478;-74
2022/04/26 14:33:59;;;;;;;2.93;2.60;;;;;;;;;;5048761;28;21240;-74
2022/04/26 14:36:26;;;;;;;2.90;2.80;;;;;;;;;;5041739;28;20493;-70
2022/04/26 14:38:52;;;;;;;3.50;3.30;;;;;;;;;;5043280;28;20458;-77
2022/04/26 14:41:18;;;;;;;3.80;3.40;;;;;;;;;;5043311;28;20847;-77
2022/04/26 14:43:44;;;;;;;3.43;3.23;;;;;;;;;;5044210;28;20803;-76
2022/04/26 14:46:09;;;;;;;3.17;2.97;;;;;;;;;;5046183;28;20444;-76
2022/04/26 14:48:36;;;;;;;2.70;2.60;;;;;;;;;;5048367;28;20441;-74
2022/04/26 14:51:02;;;;;;;3.13;3.03;;;;;;;;;;5048280;28;20556;-75
2022/04/26 14:53:28;;;;;;;3.47;3.40;;;;;;;;;;5047676;28;20439;-72
2022/04/26 14:55:54;;;;;;;3.10;3.00;;;;;;;;;;5048687;28;20659;-73
2022/04/26 14:58:20;;;;;;;4.10;3.80;;;;;;;;;;5051576;28;20544;-77
2022/04/26 15:00:46;;;;;;;4.53;4.23;;;;;;;;;;5048570;28;20489;-77
2022/04/26 15:03:12;;;;;;;4.03;3.80;;;;;;;;;;5049127;28;20850;-76
2022/04/26 15:05:38;;;;;;;5.00;3.23;;;;;;;;;;5048964;28;20572;-76
2022/04/26 15:10:49;;;;;;;6.73;4.27;;;;;;;;;;5048498;28;20471;-76
2022/04/26 15:18:44;;;;;;;13.97;3.80;;;;;;;;;;5049771;28;20474;-75
2022/04/26 15:21:10;;;;;;;5.30;3.20;;;;;;;;;;5048238;28;20794;-75
2022/04/26 15:23:36;;;;;;;3.30;3.20;;;;;;;;;;5050464;28;20945;-75
2022/04/26 15:26:06;;;;;;;3.43;3.23;;;;;;;;;;5047317;28;20454;-76
2022/04/26 15:28:32;;;;;;;2.80;2.60;;;;;;;;;;5048804;28;20446;-76
2022/04/26 15:30:58;;;;;;;3.23;3.03;;;;;;;;;;5044990;28;20447;-75
2022/04/26 15:33:24;;;;;;;2.90;2.90;;;;;;;;;;5048049;28;20441;-76
2022/04/26 15:35:51;;;;;;;3.10;3.00;;;;;;;;;;5048135;28;20427;-76
2022/04/26 15:38:17;;;;;;;3.37;3.27;;;;;;;;;;5047852;28;20434;-76
2022/04/26 15:40:46;;;;;;;3.00;2.93;;;;;;;;;;5044561;28;20579;-75
2022/04/26 15:43:12;;;;;;;3.30;3.20;;;;;;;;;;5051554;28;20426;-72
2022/04/26 15:45:39;;;;;;;3.20;3.10;;;;;;;;;;5048371;28;20450;-73
2022/04/26 15:48:05;;;;;;;5.30;3.30;;;;;;;;;;5038257;28;20832;-74
2022/04/26 15:50:31;;;;;;;7.30;3.00;;;;;;;;;;5048138;28;20486;-75
2022/04/26 15:52:58;;;;;;;3.70;3.50;;;;;;;;;;5047641;28;20438;-75
2022/04/26 15:55:24;;;;;;;3.20;3.10;;;;;;;;;;5051093;28;20440;-66
2022/04/26 15:57:54;;;;;;;4.50;4.00;;;;;;;;;;5047550;28;20434;-78
2022/04/26 16:00:20;;;;;;;3.10;3.00;;;;;;;;;;5046333;28;20512;-78
2022/04/26 16:02:47;;;;;;;3.60;3.50;;;;;;;;;;5047286;28;20442;-78
2022/04/26 16:05:13;;;;;;;3.50;3.40;;;;;;;;;;5046205;28;21128;-77
2022/04/26 16:07:39;;;;;;;3.30;3.10;;;;;;;;;;5049774;28;20438;-79
2022/04/26 16:21:06;;;;;;;4.47;4.27;;;;;;;;;;5046188;28;20535;-80
2022/04/26 16:23:32;;;;;;;4.37;3.97;;;;;;;;;;5050392;28;20806;-76
2022/04/26 16:26:06;;;;;;;4.53;4.20;;;;;;;;;;5045275;28;20942;-73
2022/04/26 16:28:37;;;;;;;4.37;4.23;;;;;;;;;;5047218;28;20426;-74
2022/04/26 16:31:03;;;;;;;6.87;6.27;;;;;;;;;;5047317;28;21756;-76
2022/04/26 16:33:30;;;;;;;3.70;3.53;;;;;;;;;;5040967;28;20502;-76
2022/04/26 16:35:55;;;;;;;3.67;3.57;;;;;;;;;;5042245;28;20537;-74
2022/04/26 16:38:22;;;;;;;3.80;3.33;;;;;;;;;;5041093;28;20521;-71
2022/04/26 16:40:48;;;;;;;3.40;3.10;;;;;;;;;;5049374;28;20474;-75
2022/04/26 16:43:16;;;;;;;3.63;3.50;;;;;;;;;;5048275;28;20473;-75
2022/04/26 16:45:43;;;;;;;3.30;3.20;;;;;;;;;;5047192;28;20775;-77
2022/04/26 16:48:08;;;;;;;6.33;3.27;;;;;;;;;;5045977;28;20434;-77
2022/04/26 16:50:34;;;;;;;3.90;3.70;;;;;;;;;;5048843;28;20477;-77
2022/04/26 16:53:00;;;;;;;11.07;3.90;;;;;;;;;;5048837;28;20802;-77
2022/04/26 16:55:27;;;;;;;4.50;4.10;;;;;;;;;;5048602;28;20434;-78
2022/04/26 16:57:53;;;;;;;3.43;3.33;;;;;;;;;;5048559;28;20433;-78
2022/04/26 17:00:19;;;;;;;3.27;3.13;;;;;;;;;;5044553;28;20490;-79
2022/04/26 17:02:46;;;;;;;3.70;3.40;;;;;;;;;;5044880;28;20985;-76
2022/04/26 17:05:12;;;;;;;4.07;3.67;;;;;;;;;;5048669;28;20437;-79
2022/04/26 17:07:40;;;;;;;6.57;3.20;;;;;;;;;;5047675;28;20438;-75
2022/04/26 17:10:06;;;;;;;3.40;3.10;;;;;;;;;;5046741;28;20434;-74
2022/04/26 17:12:33;;;;;;;3.00;3.00;;;;;;;;;;5044088;28;20438;-73
2022/04/26 17:15:00;;;;;;;3.60;3.37;;;;;;;;;;5046806;28;20488;-77
2022/04/26 17:17:27;;;;;;;4.27;3.97;;;;;;;;;;5047475;28;20439;-78
2022/04/26 17:19:53;;;;;;;3.67;3.57;;;;;;;;;;5048512;28;20438;-76
2022/04/26 17:22:20;;;;;;;3.60;3.50;;;;;;;;;;5041090;28;20446;-78
2022/04/26 17:27:30;;;;;;;5.90;5.40;;;;;;;;;;5045450;28;20929;-73
2022/04/26 17:29:56;;;;;;;4.07;3.87;;;;;;;;;;5046521;28;20430;-72
2022/04/26 17:32:22;;;;;;;6.93;6.33;;;;;;;;;;5042269;28;20530;-80
2022/04/26 17:34:50;;;;;;;25.40;15.20;;;;;;;;;;5032364;28;20523;-77
2022/04/26 17:37:16;;;;;;;24.20;13.53;;;;;;;;;;5042299;28;20474;-78
2022/04/26 17:39:42;;;;;;;29.60;16.23;;;;;;;;;;5043151;28;21146;-80
2022/04/26 17:42:08;;;;;;;3.90;3.70;;;;;;;;;;5045716;28;20434;-78
2022/04/26 17:44:35;;;;;;;3.80;3.60;;;;;;;;;;5044927;28;21144;-76
2022/04/26 17:47:02;;;;;;;3.60;3.00;;;;;;;;;;5045096;28;20513;-71
2022/04/26 17:49:28;;;;;;;2.90;2.80;;;;;;;;;;5045831;28;20468;-72
2022/04/26 17:51:54;;;;;;;3.70;3.40;;;;;;;;;;5047179;28;21052;-77
2022/04/26 17:57:05;;;;;;;3.00;3.00;;;;;;;;;;5045120;28;20502;-76
2022/04/26 17:59:31;;;;;;;3.37;3.27;;;;;;;;;;5047692;28;20517;-70
2022/04/26 18:01:57;;;;;;;2.97;2.93;;;;;;;;;;5044629;28;21049;-77
2022/04/26 18:04:23;;;;;;;2.93;2.83;;;;;;;;;;5043429;28;20488;-77
2022/04/26 18:06:49;;;;;;;3.13;3.03;;;;;;;;;;5044565;28;20431;-77
2022/04/26 18:09:15;;;;;;;6.53;6.10;;;;;;;;;;5044856;28;20526;-78
2022/04/26 18:11:41;;;;;;;7.80;7.00;;;;;;;;;;5046093;28;20466;-77
2022/04/26 18:14:07;;;;;;;8.90;8.10;;;;;;;;;;5042883;28;21774;-76
2022/04/26 18:16:34;;;;;;;14.37;7.37;;;;;;;;;;5041255;28;20455;-77
2022/04/26 18:19:03;;;;;;;8.53;7.77;;;;;;;;;;5041116;28;20435;-76
2022/04/26 18:21:32;;;;;;;8.00;7.27;;;;;;;;;;5050459;28;20504;-76
2022/04/26 18:23:59;;;;;;;10.83;8.17;;;;;;;;;;5048514;28;20843;-76
2022/04/26 18:26:25;;;;;;;8.10;7.40;;;;;;;;;;5049390;28;20445;-75
2022/04/26 18:28:53;;;;;;;8.43;7.73;;;;;;;;;;5050323;28;20437;-76
2022/04/26 18:31:20;;;;;;;8.13;7.43;;;;;;;;;;5050844;28;20504;-76
2022/04/26 18:33:46;;;;;;;11.20;7.30;;;;;;;;;;5045851;28;20430;-78
2022/04/26 18:36:13;;;;;;;8.90;8.00;;;;;;;;;;5050656;28;20446;-78
2022/04/26 18:38:41;;;;;;;7.40;6.80;;;;;;;;;;5051254;28;20975;-73
2022/04/26 18:41:10;;;;;;;7.30;6.83;;;;;;;;;;5048500;28;21055;-72
2022/04/26 18:43:36;;;;;;;7.20;6.77;;;;;;;;;;5048676;28;20427;-74
2022/04/26 18:46:03;;;;;;;9.63;7.70;;;;;;;;;;5048091;28;20438;-76
2022/04/26 18:48:30;;;;;;;7.27;6.53;;;;;;;;;;5050570;28;20505;-75
2022/04/26 18:50:56;;;;;;;7.90;7.10;;;;;;;;;;5045379;28;20908;-77
2022/04/26 18:53:22;;;;;;;7.63;7.03;;;;;;;;;;5050687;28;21028;-76
2022/04/26 18:55:49;;;;;;;8.07;7.27;;;;;;;;;;5048679;28;20525;-75
2022/04/26 18:58:19;;;;;;;8.50;7.60;;;;;;;;;;5050919;28;20446;-77
2022/04/26 19:00:45;;;;;;;7.90;7.30;;;;;;;;;;5041212;28;20501;-77
2022/04/26 19:03:12;;;;;;;7.60;7.10;;;;;;;;;;5047638;28;20445;-76
2022/04/26 19:05:38;;;;;;;9.50;8.60;;;;;;;;;;5047871;28;20438;-78
2022/04/26 19:08:04;;;;;;;9.03;8.33;;;;;;;;;;5046603;28;20930;-76
2022/04/26 19:13:16;;;;;;;8.23;7.63;;;;;;;;;;5045332;28;20543;-78
2022/04/26 19:15:42;;;;;;;8.23;7.70;;;;;;;;;;5047574;28;20909;-77
2022/04/26 19:18:08;;;;;;;8.57;7.90;;;;;;;;;;5047852;28;20943;-78
2022/04/26 19:20:35;;;;;;;8.83;8.10;;;;;;;;;;5049916;28;20555;-74